Pilot Boat 183 — FT7120 — position and weather

sailwx.info

Track history (hours):
 
Tides and Currents Weather Stations Pressure Air Temp Water Temp Dewpoint Dewpoint Depression Visibility Wind Speed Wind Dir Waves Ship Positions

Pilot Boat 183

Last reported at 2015-Feb-01 07:33 UTC. Time now 2015-Feb-01 08:44 UTC.
Position N 43°18' E 005°22'.

Length 16 m; draft 1 m.

Type: Pilot. MMSI: 227005760.

Date/timePositionNaut miles runAvg speedWind from/ knotsBaromVisibWave heightAir tempDewpointWater temp
2015-Feb-01 07:33N 43°18' E 005°22'0 0.0
2015-Feb-01 06:33N 43°18' E 005°22'2 2.4
2015-Feb-01 05:33N 43°17' E 005°19'0 0.0
2015-Jan-31 22:33N 43°17' E 005°19'2 2.4
2015-Jan-31 21:33N 43°18' E 005°22'2 0.6
2015-Jan-31 17:33N 43°17' E 005°19'2 2.4
2015-Jan-31 16:33N 43°18' E 005°22'2 0.3
2015-Jan-31 07:20N 43°17' E 005°19'1 1.7
2015-Jan-31 06:33N 43°18' E 005°18'2 0.3
2015-Jan-30 23:33N 43°20' E 005°19'2 2.0
2015-Jan-30 22:33N 43°19' E 005°17'3 0.6
2015-Jan-30 18:32N 43°17' E 005°19'2 0.1
2015-Jan-29 08:09N 43°18' E 005°22'0 0.0
2015-Jan-29 07:33N 43°18' E 005°22'0 0.0
2015-Jan-29 06:33N 43°18' E 005°22'0 0.4
2015-Jan-29 05:33N 43°18' E 005°22'0 0.0
2015-Jan-28 12:17N 43°18' E 005°22'2 0.4
2015-Jan-28 05:33N 43°17' E 005°19'4 4.2
2015-Jan-28 04:33N 43°21' E 005°20'4 0.2
2015-Jan-27 07:15N 43°17' E 005°19'1 0.0
2015-Jan-25 06:34N 43°18' E 005°18'3 3.1
2015-Jan-25 05:33N 43°21' E 005°20'0 0.0
2015-Jan-25 04:33N 43°21' E 005°20'4 0.8
2015-Jan-24 23:15N 43°17' E 005°19'2 3.5
2015-Jan-24 22:33N 43°18' E 005°22'  
Track history (hours):
 
Tides and Currents Weather Stations Pressure Air Temp Water Temp Dewpoint Dewpoint Depression Visibility Wind Speed Wind Dir Waves Ship Positions

Pilot Boat 183

Last reported at 2015-Feb-01 07:33 UTC. Time now 2015-Feb-01 08:44 UTC.
Position N 43°18' E 005°22'.

Length 16 m; draft 1 m.

Type: Pilot. MMSI: 227005760.

Date/timePositionNaut miles runAvg speedWind from/ knotsBaromVisibWave heightAir tempDewpointWater temp
2015-Feb-01 07:33N 43°18' E 005°22'0 0.0
2015-Feb-01 06:33N 43°18' E 005°22'2 2.4
2015-Feb-01 05:33N 43°17' E 005°19'0 0.0
2015-Jan-31 22:33N 43°17' E 005°19'2 2.4
2015-Jan-31 21:33N 43°18' E 005°22'2 0.6
2015-Jan-31 17:33N 43°17' E 005°19'2 2.4
2015-Jan-31 16:33N 43°18' E 005°22'2 0.3
2015-Jan-31 07:20N 43°17' E 005°19'1 1.7
2015-Jan-31 06:33N 43°18' E 005°18'2 0.3
2015-Jan-30 23:33N 43°20' E 005°19'2 2.0
2015-Jan-30 22:33N 43°19' E 005°17'3 0.6
2015-Jan-30 18:32N 43°17' E 005°19'2 0.1
2015-Jan-29 08:09N 43°18' E 005°22'0 0.0
2015-Jan-29 07:33N 43°18' E 005°22'0 0.0
2015-Jan-29 06:33N 43°18' E 005°22'0 0.4
2015-Jan-29 05:33N 43°18' E 005°22'0 0.0
2015-Jan-28 12:17N 43°18' E 005°22'2 0.4
2015-Jan-28 05:33N 43°17' E 005°19'4 4.2
2015-Jan-28 04:33N 43°21' E 005°20'4 0.2
2015-Jan-27 07:15N 43°17' E 005°19'1 0.0
2015-Jan-25 06:34N 43°18' E 005°18'3 3.1
2015-Jan-25 05:33N 43°21' E 005°20'0 0.0
2015-Jan-25 04:33N 43°21' E 005°20'4 0.8
2015-Jan-24 23:15N 43°17' E 005°19'2 3.5
2015-Jan-24 22:33N 43°18' E 005°22'  

Dump ship's entire track history